sensor_id;sensor_type;location;lat;lon;timestamp;pressure;altitude;pressure_sealevel;temperature
69552;BMP280;63774;45.292;11.784;2023-07-31T00:00:04;101591.75;;;27.33
69552;BMP280;63774;45.292;11.784;2023-07-31T00:02:30;101588.27;;;27.34
69552;BMP280;63774;45.292;11.784;2023-07-31T00:04:55;101582.52;;;27.32
69552;BMP280;63774;45.292;11.784;2023-07-31T00:07:21;101585.77;;;27.30
69552;BMP280;63774;45.292;11.784;2023-07-31T00:09:46;101585.98;;;27.30
69552;BMP280;63774;45.292;11.784;2023-07-31T00:12:11;101587.58;;;27.26
69552;BMP280;63774;45.292;11.784;2023-07-31T00:14:37;101589.91;;;27.26
69552;BMP280;63774;45.292;11.784;2023-07-31T00:17:02;101592.04;;;27.25
69552;BMP280;63774;45.292;11.784;2023-07-31T00:19:28;101597.27;;;27.27
69552;BMP280;63774;45.292;11.784;2023-07-31T00:21:53;101595.96;;;27.25
69552;BMP280;63774;45.292;11.784;2023-07-31T00:24:19;101596.70;;;27.23
69552;BMP280;63774;45.292;11.784;2023-07-31T00:26:44;101593.89;;;27.21
69552;BMP280;63774;45.292;11.784;2023-07-31T00:29:10;101592.00;;;27.22
69552;BMP280;63774;45.292;11.784;2023-07-31T00:31:35;101589.73;;;27.21
69552;BMP280;63774;45.292;11.784;2023-07-31T00:34:00;101583.17;;;27.19
69552;BMP280;63774;45.292;11.784;2023-07-31T00:36:26;101578.52;;;27.19
69552;BMP280;63774;45.292;11.784;2023-07-31T00:38:52;101576.88;;;27.18
69552;BMP280;63774;45.292;11.784;2023-07-31T00:41:17;101575.61;;;27.16
69552;BMP280;63774;45.292;11.784;2023-07-31T00:43:42;101575.99;;;27.17
69552;BMP280;63774;45.292;11.784;2023-07-31T00:46:08;101572.08;;;27.13
69552;BMP280;63774;45.292;11.784;2023-07-31T00:48:34;101572.80;;;27.13
69552;BMP280;63774;45.292;11.784;2023-07-31T00:51:00;101572.90;;;27.11
69552;BMP280;63774;45.292;11.784;2023-07-31T00:53:27;101574.29;;;27.10
69552;BMP280;63774;45.292;11.784;2023-07-31T00:55:53;101577.05;;;27.09
69552;BMP280;63774;45.292;11.784;2023-07-31T00:58:19;101580.30;;;27.07
69552;BMP280;63774;45.292;11.784;2023-07-31T01:00:44;101577.93;;;27.06
69552;BMP280;63774;45.292;11.784;2023-07-31T01:03:11;101577.47;;;27.07
69552;BMP280;63774;45.292;11.784;2023-07-31T01:05:56;101576.46;;;27.05
69552;BMP280;63774;45.292;11.784;2023-07-31T01:11:05;101571.38;;;27.02
69552;BMP280;63774;45.292;11.784;2023-07-31T01:13:32;101572.65;;;27.01
69552;BMP280;63774;45.292;11.784;2023-07-31T01:15:58;101575.11;;;27.01
69552;BMP280;63774;45.292;11.784;2023-07-31T01:18:23;101576.70;;;27.01
69552;BMP280;63774;45.292;11.784;2023-07-31T01:20:54;101578.13;;;27.00
69552;BMP280;63774;45.292;11.784;2023-07-31T01:26:12;101582.08;;;27.00
69552;BMP280;63774;45.292;11.784;2023-07-31T01:31:36;101579.40;;;26.98
69552;BMP280;63774;45.292;11.784;2023-07-31T01:34:03;101574.98;;;26.98
69552;BMP280;63774;45.292;11.784;2023-07-31T01:36:30;101572.11;;;26.97
69552;BMP280;63774;45.292;11.784;2023-07-31T01:39:00;101580.17;;;26.96
69552;BMP280;63774;45.292;11.784;2023-07-31T01:41:26;101579.18;;;26.95
69552;BMP280;63774;45.292;11.784;2023-07-31T01:43:51;101583.80;;;26.96
69552;BMP280;63774;45.292;11.784;2023-07-31T01:46:17;101581.16;;;26.95
69552;BMP280;63774;45.292;11.784;2023-07-31T01:48:42;101582.02;;;26.95
69552;BMP280;63774;45.292;11.784;2023-07-31T01:51:08;101586.48;;;26.94
69552;BMP280;63774;45.292;11.784;2023-07-31T01:53:33;101593.65;;;26.94
69552;BMP280;63774;45.292;11.784;2023-07-31T01:55:59;101595.13;;;26.94
69552;BMP280;63774;45.292;11.784;2023-07-31T01:58:24;101594.59;;;26.94
69552;BMP280;63774;45.292;11.784;2023-07-31T02:00:49;101591.12;;;26.92
69552;BMP280;63774;45.292;11.784;2023-07-31T02:03:15;101589.73;;;26.93
69552;BMP280;63774;45.292;11.784;2023-07-31T02:05:48;101592.55;;;26.92
69552;BMP280;63774;45.292;11.784;2023-07-31T02:08:14;101596.13;;;26.92
69552;BMP280;63774;45.292;11.784;2023-07-31T02:10:40;101591.26;;;26.91
69552;BMP280;63774;45.292;11.784;2023-07-31T02:13:05;101585.45;;;26.89
69552;BMP280;63774;45.292;11.784;2023-07-31T02:15:31;101582.98;;;26.89
69552;BMP280;63774;45.292;11.784;2023-07-31T02:17:56;101581.10;;;26.89
69552;BMP280;63774;45.292;11.784;2023-07-31T02:20:22;101576.85;;;26.87
69552;BMP280;63774;45.292;11.784;2023-07-31T02:22:47;101575.69;;;26.88
69552;BMP280;63774;45.292;11.784;2023-07-31T02:25:13;101579.48;;;26.88
69552;BMP280;63774;45.292;11.784;2023-07-31T02:27:38;101582.00;;;26.88
69552;BMP280;63774;45.292;11.784;2023-07-31T02:30:04;101577.84;;;26.86
69552;BMP280;63774;45.292;11.784;2023-07-31T02:32:29;101572.59;;;26.85
69552;BMP280;63774;45.292;11.784;2023-07-31T02:34:55;101573.27;;;26.85
69552;BMP280;63774;45.292;11.784;2023-07-31T02:37:20;101575.14;;;26.85
69552;BMP280;63774;45.292;11.784;2023-07-31T02:39:46;101574.52;;;26.86
69552;BMP280;63774;45.292;11.784;2023-07-31T02:42:12;101575.31;;;26.86
69552;BMP280;63774;45.292;11.784;2023-07-31T02:44:38;101578.13;;;26.83
69552;BMP280;63774;45.292;11.784;2023-07-31T02:47:03;101579.19;;;26.83
69552;BMP280;63774;45.292;11.784;2023-07-31T02:49:29;101578.54;;;26.81
69552;BMP280;63774;45.292;11.784;2023-07-31T02:51:54;101577.50;;;26.81
69552;BMP280;63774;45.292;11.784;2023-07-31T02:54:20;101575.30;;;26.81
69552;BMP280;63774;45.292;11.784;2023-07-31T02:56:47;101574.71;;;26.80
69552;BMP280;63774;45.292;11.784;2023-07-31T02:59:13;101573.59;;;26.79
69552;BMP280;63774;45.292;11.784;2023-07-31T03:01:38;101578.25;;;26.79
69552;BMP280;63774;45.292;11.784;2023-07-31T03:04:04;101580.14;;;26.77
69552;BMP280;63774;45.292;11.784;2023-07-31T03:06:29;101578.49;;;26.75
69552;BMP280;63774;45.292;11.784;2023-07-31T03:08:54;101576.61;;;26.75
69552;BMP280;63774;45.292;11.784;2023-07-31T03:11:20;101572.85;;;26.74
69552;BMP280;63774;45.292;11.784;2023-07-31T03:13:45;101577.40;;;26.73
69552;BMP280;63774;45.292;11.784;2023-07-31T03:16:11;101577.79;;;26.72
69552;BMP280;63774;45.292;11.784;2023-07-31T03:18:37;101578.38;;;26.71
69552;BMP280;63774;45.292;11.784;2023-07-31T03:21:02;101580.11;;;26.71
69552;BMP280;63774;45.292;11.784;2023-07-31T03:23:27;101578.92;;;26.71
69552;BMP280;63774;45.292;11.784;2023-07-31T03:26:01;101577.70;;;26.70
69552;BMP280;63774;45.292;11.784;2023-07-31T03:28:28;101578.28;;;26.68
69552;BMP280;63774;45.292;11.784;2023-07-31T03:30:54;101579.91;;;26.66
69552;BMP280;63774;45.292;11.784;2023-07-31T03:33:19;101576.73;;;26.64
69552;BMP280;63774;45.292;11.784;2023-07-31T03:35:45;101578.55;;;26.65
69552;BMP280;63774;45.292;11.784;2023-07-31T03:38:10;101574.98;;;26.64
69552;BMP280;63774;45.292;11.784;2023-07-31T03:40:36;101576.27;;;26.63
69552;BMP280;63774;45.292;11.784;2023-07-31T03:43:01;101578.79;;;26.60
69552;BMP280;63774;45.292;11.784;2023-07-31T03:45:26;101579.82;;;26.59
69552;BMP280;63774;45.292;11.784;2023-07-31T03:47:52;101579.55;;;26.59
69552;BMP280;63774;45.292;11.784;2023-07-31T03:50:18;101580.91;;;26.57
69552;BMP280;63774;45.292;11.784;2023-07-31T03:52:44;101583.56;;;26.56
69552;BMP280;63774;45.292;11.784;2023-07-31T03:55:09;101588.86;;;26.56
69552;BMP280;63774;45.292;11.784;2023-07-31T03:57:34;101593.17;;;26.56
69552;BMP280;63774;45.292;11.784;2023-07-31T04:00:00;101596.55;;;26.55
69552;BMP280;63774;45.292;11.784;2023-07-31T04:02:25;101596.55;;;26.53
69552;BMP280;63774;45.292;11.784;2023-07-31T04:04:50;101597.01;;;26.53
69552;BMP280;63774;45.292;11.784;2023-07-31T04:07:16;101596.61;;;26.52
69552;BMP280;63774;45.292;11.784;2023-07-31T04:09:41;101597.45;;;26.51
69552;BMP280;63774;45.292;11.784;2023-07-31T04:12:07;101597.95;;;26.51
69552;BMP280;63774;45.292;11.784;2023-07-31T04:14:32;101599.17;;;26.51
69552;BMP280;63774;45.292;11.784;2023-07-31T04:16:57;101599.17;;;26.51
69552;BMP280;63774;45.292;11.784;2023-07-31T04:19:23;101598.61;;;26.51
69552;BMP280;63774;45.292;11.784;2023-07-31T04:21:49;101597.96;;;26.50
69552;BMP280;63774;45.292;11.784;2023-07-31T04:24:14;101595.91;;;26.50
69552;BMP280;63774;45.292;11.784;2023-07-31T04:26:40;101595.25;;;26.50
69552;BMP280;63774;45.292;11.784;2023-07-31T04:29:05;101593.54;;;26.51
69552;BMP280;63774;45.292;11.784;2023-07-31T04:31:30;101589.11;;;26.51
69552;BMP280;63774;45.292;11.784;2023-07-31T04:33:56;101586.32;;;26.51
69552;BMP280;63774;45.292;11.784;2023-07-31T04:36:21;101587.94;;;26.51
69552;BMP280;63774;45.292;11.784;2023-07-31T04:38:46;101588.34;;;26.52
69552;BMP280;63774;45.292;11.784;2023-07-31T04:41:12;101591.19;;;26.53
69552;BMP280;63774;45.292;11.784;2023-07-31T04:43:37;101588.45;;;26.52
69552;BMP280;63774;45.292;11.784;2023-07-31T04:46:05;101590.77;;;26.54
69552;BMP280;63774;45.292;11.784;2023-07-31T04:48:30;101593.49;;;26.53
69552;BMP280;63774;45.292;11.784;2023-07-31T04:50:56;101594.02;;;26.55
69552;BMP280;63774;45.292;11.784;2023-07-31T04:53:21;101597.96;;;26.54
69552;BMP280;63774;45.292;11.784;2023-07-31T04:55:47;101597.67;;;26.56
69552;BMP280;63774;45.292;11.784;2023-07-31T04:58:12;101600.54;;;26.57
69552;BMP280;63774;45.292;11.784;2023-07-31T05:00:37;101598.23;;;26.58
69552;BMP280;63774;45.292;11.784;2023-07-31T05:03:03;101597.98;;;26.60
69552;BMP280;63774;45.292;11.784;2023-07-31T05:05:28;101599.08;;;26.61
69552;BMP280;63774;45.292;11.784;2023-07-31T05:07:53;101600.23;;;26.63
69552;BMP280;63774;45.292;11.784;2023-07-31T05:10:19;101602.25;;;26.63
69552;BMP280;63774;45.292;11.784;2023-07-31T05:12:44;101604.52;;;26.66
69552;BMP280;63774;45.292;11.784;2023-07-31T05:15:10;101601.26;;;26.66
69552;BMP280;63774;45.292;11.784;2023-07-31T05:17:35;101601.95;;;26.67
69552;BMP280;63774;45.292;11.784;2023-07-31T05:20:01;101600.08;;;26.68
69552;BMP280;63774;45.292;11.784;2023-07-31T05:22:26;101601.11;;;26.70
69552;BMP280;63774;45.292;11.784;2023-07-31T05:24:52;101601.27;;;26.71
69552;BMP280;63774;45.292;11.784;2023-07-31T05:27:19;101604.56;;;26.73
69552;BMP280;63774;45.292;11.784;2023-07-31T05:29:44;101606.96;;;26.72
69552;BMP280;63774;45.292;11.784;2023-07-31T05:32:10;101611.45;;;26.75
69552;BMP280;63774;45.292;11.784;2023-07-31T05:34:35;101609.40;;;26.77
69552;BMP280;63774;45.292;11.784;2023-07-31T05:37:01;101609.91;;;26.78
69552;BMP280;63774;45.292;11.784;2023-07-31T05:39:26;101611.08;;;26.80
69552;BMP280;63774;45.292;11.784;2023-07-31T05:41:51;101611.84;;;26.81
69552;BMP280;63774;45.292;11.784;2023-07-31T05:44:19;101611.92;;;26.83
69552;BMP280;63774;45.292;11.784;2023-07-31T05:46:45;101612.80;;;26.84
69552;BMP280;63774;45.292;11.784;2023-07-31T05:49:10;101614.44;;;26.85
69552;BMP280;63774;45.292;11.784;2023-07-31T05:51:35;101618.09;;;26.87
69552;BMP280;63774;45.292;11.784;2023-07-31T05:54:01;101622.37;;;26.87
69552;BMP280;63774;45.292;11.784;2023-07-31T05:56:26;101624.34;;;26.90
69552;BMP280;63774;45.292;11.784;2023-07-31T05:58:52;101624.58;;;26.91
69552;BMP280;63774;45.292;11.784;2023-07-31T06:01:17;101624.19;;;26.92
69552;BMP280;63774;45.292;11.784;2023-07-31T06:03:43;101623.33;;;26.93
69552;BMP280;63774;45.292;11.784;2023-07-31T06:06:09;101625.16;;;26.95
69552;BMP280;63774;45.292;11.784;2023-07-31T06:08:34;101627.08;;;26.95
69552;BMP280;63774;45.292;11.784;2023-07-31T06:11:00;101625.79;;;26.97
69552;BMP280;63774;45.292;11.784;2023-07-31T06:13:25;101622.54;;;26.96
69552;BMP280;63774;45.292;11.784;2023-07-31T06:15:50;101623.14;;;26.97
69552;BMP280;63774;45.292;11.784;2023-07-31T06:18:16;101622.83;;;26.99
69552;BMP280;63774;45.292;11.784;2023-07-31T06:20:41;101626.16;;;27.02
69552;BMP280;63774;45.292;11.784;2023-07-31T06:23:07;101626.29;;;27.04
69552;BMP280;63774;45.292;11.784;2023-07-31T06:25:33;101624.95;;;27.06
69552;BMP280;63774;45.292;11.784;2023-07-31T06:27:58;101623.61;;;27.06
69552;BMP280;63774;45.292;11.784;2023-07-31T06:30:23;101624.29;;;27.09
69552;BMP280;63774;45.292;11.784;2023-07-31T06:32:49;101624.94;;;27.10
69552;BMP280;63774;45.292;11.784;2023-07-31T06:35:14;101624.70;;;27.11
69552;BMP280;63774;45.292;11.784;2023-07-31T06:37:40;101627.17;;;27.14
69552;BMP280;63774;45.292;11.784;2023-07-31T06:40:08;101627.10;;;27.18
69552;BMP280;63774;45.292;11.784;2023-07-31T06:42:34;101628.08;;;27.19
69552;BMP280;63774;45.292;11.784;2023-07-31T06:45:01;101628.00;;;27.21
69552;BMP280;63774;45.292;11.784;2023-07-31T06:47:27;101626.96;;;27.24
69552;BMP280;63774;45.292;11.784;2023-07-31T06:49:52;101627.30;;;27.25
69552;BMP280;63774;45.292;11.784;2023-07-31T06:52:17;101620.61;;;27.26
69552;BMP280;63774;45.292;11.784;2023-07-31T06:54:43;101626.97;;;27.29
69552;BMP280;63774;45.292;11.784;2023-07-31T06:57:08;101630.06;;;27.32
69552;BMP280;63774;45.292;11.784;2023-07-31T06:59:34;101629.75;;;27.32
69552;BMP280;63774;45.292;11.784;2023-07-31T07:01:59;101630.55;;;27.35
69552;BMP280;63774;45.292;11.784;2023-07-31T07:04:24;101630.11;;;27.37
69552;BMP280;63774;45.292;11.784;2023-07-31T07:06:50;101630.69;;;27.39
69552;BMP280;63774;45.292;11.784;2023-07-31T07:09:15;101630.73;;;27.40
69552;BMP280;63774;45.292;11.784;2023-07-31T07:11:41;101629.45;;;27.41
69552;BMP280;63774;45.292;11.784;2023-07-31T07:14:06;101631.93;;;27.43
69552;BMP280;63774;45.292;11.784;2023-07-31T07:16:31;101631.88;;;27.45
69552;BMP280;63774;45.292;11.784;2023-07-31T07:18:57;101632.38;;;27.46
69552;BMP280;63774;45.292;11.784;2023-07-31T07:21:22;101635.37;;;27.46
69552;BMP280;63774;45.292;11.784;2023-07-31T07:23:48;101635.73;;;27.46
69552;BMP280;63774;45.292;11.784;2023-07-31T07:26:13;101634.65;;;27.47
69552;BMP280;63774;45.292;11.784;2023-07-31T07:28:39;101636.33;;;27.48
69552;BMP280;63774;45.292;11.784;2023-07-31T07:31:04;101633.79;;;27.49
69552;BMP280;63774;45.292;11.784;2023-07-31T07:33:30;101636.02;;;27.52
69552;BMP280;63774;45.292;11.784;2023-07-31T07:35:55;101635.55;;;27.54
69552;BMP280;63774;45.292;11.784;2023-07-31T07:38:20;101635.74;;;27.55
69552;BMP280;63774;45.292;11.784;2023-07-31T07:40:46;101636.57;;;27.54
69552;BMP280;63774;45.292;11.784;2023-07-31T07:43:15;101634.10;;;27.55
69552;BMP280;63774;45.292;11.784;2023-07-31T07:45:41;101636.42;;;27.56
69552;BMP280;63774;45.292;11.784;2023-07-31T07:48:06;101639.27;;;27.56
69552;BMP280;63774;45.292;11.784;2023-07-31T07:50:32;101639.23;;;27.57
69552;BMP280;63774;45.292;11.784;2023-07-31T07:52:58;101641.20;;;27.60
69552;BMP280;63774;45.292;11.784;2023-07-31T07:55:23;101636.27;;;27.62
69552;BMP280;63774;45.292;11.784;2023-07-31T07:57:49;101633.73;;;27.62
69552;BMP280;63774;45.292;11.784;2023-07-31T08:00:16;101631.23;;;27.64
69552;BMP280;63774;45.292;11.784;2023-07-31T08:02:42;101633.22;;;27.67
69552;BMP280;63774;45.292;11.784;2023-07-31T08:05:08;101640.48;;;27.66
69552;BMP280;63774;45.292;11.784;2023-07-31T08:07:33;101644.25;;;27.68
69552;BMP280;63774;45.292;11.784;2023-07-31T08:09:59;101650.52;;;27.70
69552;BMP280;63774;45.292;11.784;2023-07-31T08:12:24;101652.95;;;27.70
69552;BMP280;63774;45.292;11.784;2023-07-31T08:14:49;101651.23;;;27.72
69552;BMP280;63774;45.292;11.784;2023-07-31T08:17:15;101647.79;;;27.73
69552;BMP280;63774;45.292;11.784;2023-07-31T08:19:40;101642.60;;;27.74
69552;BMP280;63774;45.292;11.784;2023-07-31T08:22:06;101639.51;;;27.74
69552;BMP280;63774;45.292;11.784;2023-07-31T08:24:31;101641.52;;;27.75
69552;BMP280;63774;45.292;11.784;2023-07-31T08:26:57;101649.02;;;27.77
69552;BMP280;63774;45.292;11.784;2023-07-31T08:29:22;101651.58;;;27.77
69552;BMP280;63774;45.292;11.784;2023-07-31T08:31:49;101652.98;;;27.80
69552;BMP280;63774;45.292;11.784;2023-07-31T08:34:14;101649.77;;;27.81
69552;BMP280;63774;45.292;11.784;2023-07-31T08:36:39;101648.59;;;27.83
69552;BMP280;63774;45.292;11.784;2023-07-31T08:39:05;101650.73;;;27.84
69552;BMP280;63774;45.292;11.784;2023-07-31T08:41:31;101646.83;;;27.83
69552;BMP280;63774;45.292;11.784;2023-07-31T08:43:56;101642.98;;;27.86
69552;BMP280;63774;45.292;11.784;2023-07-31T08:46:23;101639.42;;;27.88
69552;BMP280;63774;45.292;11.784;2023-07-31T08:48:51;101631.60;;;27.88
69552;BMP280;63774;45.292;11.784;2023-07-31T08:51:17;101629.36;;;27.89
69552;BMP280;63774;45.292;11.784;2023-07-31T08:53:43;101629.83;;;27.90
69552;BMP280;63774;45.292;11.784;2023-07-31T08:56:09;101631.57;;;27.90
69552;BMP280;63774;45.292;11.784;2023-07-31T08:58:35;101639.19;;;27.92
69552;BMP280;63774;45.292;11.784;2023-07-31T09:01:03;101641.19;;;27.90
69552;BMP280;63774;45.292;11.784;2023-07-31T09:03:33;101647.52;;;27.94
69552;BMP280;63774;45.292;11.784;2023-07-31T09:05:59;101646.36;;;27.96
69552;BMP280;63774;45.292;11.784;2023-07-31T09:08:26;101645.48;;;27.95
69552;BMP280;63774;45.292;11.784;2023-07-31T09:10:59;101644.34;;;27.94
69552;BMP280;63774;45.292;11.784;2023-07-31T09:13:27;101647.57;;;27.95
69552;BMP280;63774;45.292;11.784;2023-07-31T09:15:53;101645.71;;;27.98
69552;BMP280;63774;45.292;11.784;2023-07-31T09:18:18;101648.98;;;27.98
69552;BMP280;63774;45.292;11.784;2023-07-31T09:21:08;101647.38;;;27.99
69552;BMP280;63774;45.292;11.784;2023-07-31T09:23:41;101643.94;;;28.01
69552;BMP280;63774;45.292;11.784;2023-07-31T09:26:07;101637.82;;;28.01
69552;BMP280;63774;45.292;11.784;2023-07-31T09:28:33;101638.16;;;28.02
69552;BMP280;63774;45.292;11.784;2023-07-31T09:30:58;101640.47;;;28.01
69552;BMP280;63774;45.292;11.784;2023-07-31T09:33:23;101642.95;;;28.04
69552;BMP280;63774;45.292;11.784;2023-07-31T09:35:49;101647.76;;;28.05
69552;BMP280;63774;45.292;11.784;2023-07-31T09:38:15;101648.32;;;28.03
69552;BMP280;63774;45.292;11.784;2023-07-31T09:40:43;101646.30;;;28.04
69552;BMP280;63774;45.292;11.784;2023-07-31T09:43:13;101644.34;;;28.08
69552;BMP280;63774;45.292;11.784;2023-07-31T09:45:41;101644.88;;;28.10
69552;BMP280;63774;45.292;11.784;2023-07-31T09:48:08;101640.73;;;28.09
69552;BMP280;63774;45.292;11.784;2023-07-31T09:50:37;101635.22;;;28.11
69552;BMP280;63774;45.292;11.784;2023-07-31T09:53:03;101634.77;;;28.14
69552;BMP280;63774;45.292;11.784;2023-07-31T09:55:30;101635.48;;;28.15
69552;BMP280;63774;45.292;11.784;2023-07-31T09:57:57;101632.59;;;28.13
69552;BMP280;63774;45.292;11.784;2023-07-31T10:00:24;101630.77;;;28.13
69552;BMP280;63774;45.292;11.784;2023-07-31T10:02:52;101625.79;;;28.14
69552;BMP280;63774;45.292;11.784;2023-07-31T10:05:19;101623.46;;;28.16
69552;BMP280;63774;45.292;11.784;2023-07-31T10:07:52;101616.85;;;28.16
69552;BMP280;63774;45.292;11.784;2023-07-31T10:10:20;101613.40;;;28.17
69552;BMP280;63774;45.292;11.784;2023-07-31T10:12:48;101609.75;;;28.17
69552;BMP280;63774;45.292;11.784;2023-07-31T10:15:14;101607.04;;;28.16
69552;BMP280;63774;45.292;11.784;2023-07-31T10:17:40;101608.34;;;28.18
69552;BMP280;63774;45.292;11.784;2023-07-31T10:20:07;101603.45;;;28.16
69552;BMP280;63774;45.292;11.784;2023-07-31T10:22:34;101606.70;;;28.16
69552;BMP280;63774;45.292;11.784;2023-07-31T10:24:59;101609.11;;;28.18
69552;BMP280;63774;45.292;11.784;2023-07-31T10:27:25;101604.09;;;28.21
69552;BMP280;63774;45.292;11.784;2023-07-31T10:29:54;101603.05;;;28.22
69552;BMP280;63774;45.292;11.784;2023-07-31T10:32:20;101601.55;;;28.19
69552;BMP280;63774;45.292;11.784;2023-07-31T10:34:47;101600.96;;;28.23
69552;BMP280;63774;45.292;11.784;2023-07-31T10:37:30;101599.42;;;28.24
69552;BMP280;63774;45.292;11.784;2023-07-31T10:42:35;101599.25;;;28.24
69552;BMP280;63774;45.292;11.784;2023-07-31T10:45:10;101596.91;;;28.24
69552;BMP280;63774;45.292;11.784;2023-07-31T10:47:38;101596.19;;;28.24
69552;BMP280;63774;45.292;11.784;2023-07-31T10:50:17;101596.00;;;28.24
69552;BMP280;63774;45.292;11.784;2023-07-31T10:52:47;101593.35;;;28.26
69552;BMP280;63774;45.292;11.784;2023-07-31T10:57:57;101585.70;;;28.26
69552;BMP280;63774;45.292;11.784;2023-07-31T11:00:26;101577.95;;;28.26
69552;BMP280;63774;45.292;11.784;2023-07-31T11:03:00;101574.17;;;28.26
69552;BMP280;63774;45.292;11.784;2023-07-31T11:08:27;101578.79;;;28.27
69552;BMP280;63774;45.292;11.784;2023-07-31T11:13:28;101578.75;;;28.29
69552;BMP280;63774;45.292;11.784;2023-07-31T11:15:54;101584.93;;;28.27
69552;BMP280;63774;45.292;11.784;2023-07-31T11:18:19;101589.95;;;28.30
69552;BMP280;63774;45.292;11.784;2023-07-31T11:20:45;101584.30;;;28.32
69552;BMP280;63774;45.292;11.784;2023-07-31T11:23:11;101582.98;;;28.33
69552;BMP280;63774;45.292;11.784;2023-07-31T11:25:39;101580.84;;;28.35
69552;BMP280;63774;45.292;11.784;2023-07-31T11:28:16;101577.54;;;28.35
69552;BMP280;63774;45.292;11.784;2023-07-31T11:30:43;101575.10;;;28.37
69552;BMP280;63774;45.292;11.784;2023-07-31T11:33:13;101569.50;;;28.37
69552;BMP280;63774;45.292;11.784;2023-07-31T11:38:07;101561.92;;;28.37
69552;BMP280;63774;45.292;11.784;2023-07-31T11:40:41;101564.33;;;28.38
69552;BMP280;63774;45.292;11.784;2023-07-31T11:43:07;101567.94;;;28.38
69552;BMP280;63774;45.292;11.784;2023-07-31T11:45:33;101567.47;;;28.39
69552;BMP280;63774;45.292;11.784;2023-07-31T11:48:00;101563.41;;;28.38
69552;BMP280;63774;45.292;11.784;2023-07-31T11:50:26;101560.94;;;28.39
69552;BMP280;63774;45.292;11.784;2023-07-31T11:52:59;101557.19;;;28.41
69552;BMP280;63774;45.292;11.784;2023-07-31T11:55:26;101552.66;;;28.41
69552;BMP280;63774;45.292;11.784;2023-07-31T11:57:52;101550.08;;;28.40
69552;BMP280;63774;45.292;11.784;2023-07-31T12:00:19;101544.56;;;28.40
69552;BMP280;63774;45.292;11.784;2023-07-31T12:02:44;101548.15;;;28.42
69552;BMP280;63774;45.292;11.784;2023-07-31T12:05:12;101546.46;;;28.42
69552;BMP280;63774;45.292;11.784;2023-07-31T12:07:51;101545.04;;;28.43
69552;BMP280;63774;45.292;11.784;2023-07-31T12:10:31;101543.98;;;28.43
69552;BMP280;63774;45.292;11.784;2023-07-31T12:15:36;101537.27;;;28.45
69552;BMP280;63774;45.292;11.784;2023-07-31T12:18:08;101534.85;;;28.46
69552;BMP280;63774;45.292;11.784;2023-07-31T12:20:34;101534.19;;;28.45
69552;BMP280;63774;45.292;11.784;2023-07-31T12:23:00;101531.36;;;28.44
69552;BMP280;63774;45.292;11.784;2023-07-31T12:25:30;101533.88;;;28.44
69552;BMP280;63774;45.292;11.784;2023-07-31T12:27:56;101531.58;;;28.45
69552;BMP280;63774;45.292;11.784;2023-07-31T12:32:54;101522.27;;;28.45
69552;BMP280;63774;45.292;11.784;2023-07-31T12:35:19;101521.45;;;28.44
69552;BMP280;63774;45.292;11.784;2023-07-31T12:37:44;101521.34;;;28.44
69552;BMP280;63774;45.292;11.784;2023-07-31T12:40:10;101515.41;;;28.44
69552;BMP280;63774;45.292;11.784;2023-07-31T12:42:36;101503.64;;;28.44
69552;BMP280;63774;45.292;11.784;2023-07-31T12:45:01;101496.85;;;28.45
69552;BMP280;63774;45.292;11.784;2023-07-31T12:47:26;101491.30;;;28.44
69552;BMP280;63774;45.292;11.784;2023-07-31T12:49:52;101485.77;;;28.43
69552;BMP280;63774;45.292;11.784;2023-07-31T12:52:17;101485.45;;;28.44
69552;BMP280;63774;45.292;11.784;2023-07-31T12:54:43;101490.45;;;28.45
69552;BMP280;63774;45.292;11.784;2023-07-31T12:57:08;101482.69;;;28.43
69552;BMP280;63774;45.292;11.784;2023-07-31T12:59:34;101481.58;;;28.43
69552;BMP280;63774;45.292;11.784;2023-07-31T13:02:02;101475.23;;;28.44
69552;BMP280;63774;45.292;11.784;2023-07-31T13:04:27;101476.61;;;28.46
69552;BMP280;63774;45.292;11.784;2023-07-31T13:06:53;101474.45;;;28.46
69552;BMP280;63774;45.292;11.784;2023-07-31T13:09:18;101467.98;;;28.47
69552;BMP280;63774;45.292;11.784;2023-07-31T13:11:43;101464.02;;;28.48
69552;BMP280;63774;45.292;11.784;2023-07-31T13:14:09;101461.55;;;28.47
69552;BMP280;63774;45.292;11.784;2023-07-31T13:16:34;101458.91;;;28.48
69552;BMP280;63774;45.292;11.784;2023-07-31T13:19:00;101457.54;;;28.47
69552;BMP280;63774;45.292;11.784;2023-07-31T13:21:25;101456.06;;;28.47
69552;BMP280;63774;45.292;11.784;2023-07-31T13:23:50;101451.27;;;28.48
69552;BMP280;63774;45.292;11.784;2023-07-31T13:26:19;101448.30;;;28.47
69552;BMP280;63774;45.292;11.784;2023-07-31T13:28:44;101454.61;;;28.48
69552;BMP280;63774;45.292;11.784;2023-07-31T13:31:09;101454.16;;;28.48
69552;BMP280;63774;45.292;11.784;2023-07-31T13:33:36;101453.05;;;28.48
69552;BMP280;63774;45.292;11.784;2023-07-31T13:36:02;101455.09;;;28.49
69552;BMP280;63774;45.292;11.784;2023-07-31T13:38:27;101448.19;;;28.50
69552;BMP280;63774;45.292;11.784;2023-07-31T13:40:53;101446.94;;;28.50
69552;BMP280;63774;45.292;11.784;2023-07-31T13:43:18;101444.09;;;28.49
69552;BMP280;63774;45.292;11.784;2023-07-31T13:45:43;101442.55;;;28.49
69552;BMP280;63774;45.292;11.784;2023-07-31T13:48:09;101441.63;;;28.49
69552;BMP280;63774;45.292;11.784;2023-07-31T13:50:34;101437.17;;;28.50
69552;BMP280;63774;45.292;11.784;2023-07-31T13:52:59;101438.25;;;28.50
69552;BMP280;63774;45.292;11.784;2023-07-31T13:55:25;101432.63;;;28.49
69552;BMP280;63774;45.292;11.784;2023-07-31T13:57:50;101434.00;;;28.49
69552;BMP280;63774;45.292;11.784;2023-07-31T14:00:16;101431.36;;;28.50
69552;BMP280;63774;45.292;11.784;2023-07-31T14:02:41;101431.39;;;28.51
69552;BMP280;63774;45.292;11.784;2023-07-31T14:05:07;101433.09;;;28.52